Time;durP1;ratioP1;P1;durP2;ratioP2;P2;SDS_P1;SDS_P2;PMS_P1;PMS_P2;Temp;Humidity;BMP_temperature;BMP_pressure;BME280_temperature;BME280_humidity;BME280_pressure;Samples;Min_cycle;Max_cycle;Signal;HPM_P1;HPM_P2
2022/05/06 00:01:22;;;;;;;6.93;3.10;;;;;;;7.55;43.79;101963.78;5050558;28;20523;-68
2022/05/06 00:03:47;;;;;;;6.57;3.50;;;;;;;7.62;43.45;101959.72;5052246;28;20036;-67
2022/05/06 00:06:13;;;;;;;6.33;2.87;;;;;;;7.67;43.66;101965.53;5052391;28;20460;-65
2022/05/06 00:08:39;;;;;;;6.43;2.70;;;;;;;7.72;43.02;101967.81;5051269;28;20041;-64
2022/05/06 00:11:04;;;;;;;7.43;2.37;;;;;;;7.83;42.57;101975.00;5050686;28;20089;-67
2022/05/06 00:13:30;;;;;;;5.33;2.50;;;;;;;7.81;42.82;101956.53;5052599;28;20083;-64
2022/05/06 00:15:55;;;;;;;8.67;3.20;;;;;;;7.53;42.11;101899.44;5053772;28;20036;-65
2022/05/06 00:18:21;;;;;;;5.63;2.57;;;;;;;8.02;42.60;101968.16;5053756;28;20033;-65
2022/05/06 00:20:47;;;;;;;4.60;2.90;;;;;;;8.05;41.73;101967.94;5055523;28;20033;-64
2022/05/06 00:23:12;;;;;;;7.20;3.13;;;;;;;8.18;41.56;101970.50;5055510;28;20063;-67
2022/05/06 00:25:38;;;;;;;5.77;3.23;;;;;;;8.22;41.97;101971.97;5055359;28;20033;-68
2022/05/06 00:28:03;;;;;;;7.03;2.83;;;;;;;8.23;42.69;101976.31;5054307;28;20116;-64
2022/05/06 00:30:29;;;;;;;5.53;2.60;;;;;;;8.14;42.04;101968.22;5054369;28;20044;-65
2022/05/06 00:32:55;;;;;;;6.30;3.13;;;;;;;8.04;42.30;101952.13;5052925;28;20056;-64
2022/05/06 00:35:20;;;;;;;5.80;2.77;;;;;;;8.11;42.51;101965.78;5054497;28;20412;-64
2022/05/06 00:37:46;;;;;;;6.80;3.97;;;;;;;8.18;41.80;101975.81;5054494;28;20461;-64
2022/05/06 00:40:13;;;;;;;4.73;3.43;;;;;;;8.20;41.63;101973.03;5054389;28;20508;-64
2022/05/06 00:42:39;;;;;;;4.23;3.37;;;;;;;8.17;42.31;101958.19;5054239;28;20071;-66
2022/05/06 00:45:05;;;;;;;7.33;3.20;;;;;;;8.25;41.38;101969.06;5054256;28;21019;-64
2022/05/06 00:47:33;;;;;;;9.37;3.90;;;;;;;8.27;41.07;101960.97;5054101;28;20488;-64
2022/05/06 00:50:00;;;;;;;6.23;3.27;;;;;;;8.32;41.26;101967.63;5054588;28;20069;-66
2022/05/06 00:52:26;;;;;;;5.57;2.80;;;;;;;8.30;40.95;101958.09;5054482;28;20090;-64
2022/05/06 00:54:52;;;;;;;7.23;3.03;;;;;;;8.35;41.15;101969.22;5054245;28;20036;-66
2022/05/06 00:57:18;;;;;;;5.90;3.80;;;;;;;8.33;40.88;101972.00;5053843;28;20037;-66
2022/05/06 01:02:29;;;;;;;5.97;2.40;;;;;;;8.36;40.75;101958.47;5053971;28;20044;-65
2022/05/06 01:04:55;;;;;;;3.90;2.40;;;;;;;8.37;40.88;101952.22;5053819;28;20037;-68
2022/05/06 01:07:22;;;;;;;7.23;3.30;;;;;;;8.34;40.83;101939.19;5053793;28;20404;-66
2022/05/06 01:09:51;;;;;;;8.73;2.97;;;;;;;8.46;40.46;101963.09;5053681;28;20036;-66
2022/05/06 01:12:16;;;;;;;7.50;3.00;;;;;;;8.48;40.91;101966.47;5053856;28;20183;-64
2022/05/06 01:14:42;;;;;;;5.73;2.87;;;;;;;8.48;40.93;101956.69;5052665;28;20131;-64
2022/05/06 01:17:09;;;;;;;4.93;2.53;;;;;;;8.50;40.32;101964.53;5053679;28;20041;-65
2022/05/06 01:19:35;;;;;;;6.63;2.90;;;;;;;8.51;40.46;101961.78;5052415;28;20037;-65
2022/05/06 01:22:01;;;;;;;5.70;3.10;;;;;;;8.38;40.62;101940.66;5052466;28;20128;-64
2022/05/06 01:24:26;;;;;;;5.20;2.77;;;;;;;8.42;40.63;101945.72;5052312;28;20100;-66
2022/05/06 01:26:55;;;;;;;8.10;2.60;;;;;;;8.50;41.57;101977.81;5053757;28;20456;-64
2022/05/06 01:29:22;;;;;;;4.40;2.80;;;;;;;8.49;41.27;101973.47;5053660;28;20428;-68
2022/05/06 01:31:52;;;;;;;4.80;2.87;;;;;;;8.50;40.55;101969.84;5053295;28;20128;-67
2022/05/06 01:34:19;;;;;;;4.50;2.37;;;;;;;8.47;41.81;101954.16;5053227;28;20063;-64
2022/05/06 01:36:48;;;;;;;6.03;3.03;;;;;;;8.51;41.03;101971.53;5053208;28;20057;-65
2022/05/06 01:39:18;;;;;;;5.85;2.72;;;;;;;8.45;40.75;101956.94;5053435;28;20495;-65
2022/05/06 01:41:45;;;;;;;4.77;2.43;;;;;;;8.49;41.19;101963.69;5052280;28;20041;-65
2022/05/06 01:44:14;;;;;;;4.77;2.40;;;;;;;8.40;41.70;101942.34;5053052;28;20354;-66
2022/05/06 01:46:40;;;;;;;5.78;2.67;;;;;;;8.47;41.90;101965.63;5053200;28;20044;-66
2022/05/06 01:49:07;;;;;;;5.50;2.77;;;;;;;8.49;41.22;101963.69;5052819;28;20033;-66
2022/05/06 01:51:33;;;;;;;4.53;2.90;;;;;;;8.40;41.52;101947.66;5052784;28;20559;-67
2022/05/06 01:53:59;;;;;;;3.37;2.47;;;;;;;8.46;41.91;101952.47;5053175;28;20326;-64
2022/05/06 01:56:25;;;;;;;5.33;2.80;;;;;;;8.46;41.71;101957.78;5053452;28;20037;-65
2022/05/06 01:58:51;;;;;;;5.73;2.87;;;;;;;8.46;42.61;101958.63;5035045;28;20040;-67
2022/05/06 02:01:17;;;;;;;3.40;2.50;;;;;;;8.49;41.96;101962.84;5052762;28;20492;-64
2022/05/06 02:06:31;;;;;;;9.83;2.83;;;;;;;8.49;41.82;101966.34;5042352;28;20056;-65
2022/05/06 02:08:57;;;;;;;6.77;3.30;;;;;;;8.29;42.34;101928.03;5052747;28;20091;-64
2022/05/06 02:11:22;;;;;;;6.87;2.80;;;;;;;8.27;41.82;101915.88;5052596;28;20091;-67
2022/05/06 02:13:48;;;;;;;12.13;3.20;;;;;;;8.49;42.42;101952.22;5052635;28;20146;-65
2022/05/06 02:16:14;;;;;;;6.40;3.10;;;;;;;8.41;41.94;101938.72;5052322;28;20511;-66
2022/05/06 02:18:39;;;;;;;8.63;3.27;;;;;;;8.53;42.16;101957.19;5052656;28;20622;-65
2022/05/06 02:21:05;;;;;;;9.87;3.70;;;;;;;8.40;41.91;101929.06;5052589;28;20033;-66
2022/05/06 02:23:31;;;;;;;10.53;3.30;;;;;;;8.59;42.36;101955.84;5052555;28;20053;-65
2022/05/06 02:25:56;;;;;;;4.33;3.33;;;;;;;8.62;41.69;101968.88;5052431;28;20075;-64
2022/05/06 02:28:22;;;;;;;14.23;8.33;;;;;;;8.54;42.09;101950.91;5052478;28;20496;-65
2022/05/06 02:33:36;;;;;;;9.80;6.00;;;;;;;8.61;42.34;101956.56;5052426;28;20049;-67
2022/05/06 02:36:02;;;;;;;10.10;5.40;;;;;;;8.61;42.14;101965.38;5050935;28;20033;-64
2022/05/06 02:38:29;;;;;;;12.30;4.87;;;;;;;8.67;41.77;101970.25;5052194;28;20040;-66
2022/05/06 02:40:56;;;;;;;7.67;3.70;;;;;;;8.61;42.19;101953.91;5052196;28;20400;-65
2022/05/06 02:43:22;;;;;;;6.40;3.53;;;;;;;8.75;41.45;101977.59;5052089;28;20073;-63
2022/05/06 02:45:47;;;;;;;6.77;3.77;;;;;;;8.74;41.44;101972.41;5052111;28;20456;-66
2022/05/06 02:48:13;;;;;;;5.73;3.67;;;;;;;8.62;42.10;101944.97;5051979;28;20095;-64
2022/05/06 02:50:39;;;;;;;5.00;3.40;;;;;;;8.75;43.14;101959.00;5052066;28;20399;-70
2022/05/06 02:53:05;;;;;;;7.10;3.10;;;;;;;8.84;42.82;101960.91;5052015;28;20132;-63
2022/05/06 02:55:32;;;;;;;4.73;2.60;;;;;;;8.84;42.33;101968.88;5051957;28;20062;-65
2022/05/06 02:57:58;;;;;;;5.63;3.00;;;;;;;8.85;42.80;101951.97;5051811;28;20071;-64
2022/05/06 03:00:24;;;;;;;11.47;3.43;;;;;;;8.92;42.15;101954.97;5050467;28;20515;-66
2022/05/06 03:02:50;;;;;;;3.30;2.57;;;;;;;8.20;42.06;101833.25;5051873;28;20120;-66
2022/05/06 03:05:18;;;;;;;4.50;2.60;;;;;;;8.94;42.19;101958.34;5053271;28;20543;-66
2022/05/06 03:07:51;;;;;;;7.90;3.30;;;;;;;8.97;42.09;101953.66;5054740;28;20086;-65
2022/05/06 03:10:18;;;;;;;12.27;3.10;;;;;;;8.89;42.15;101931.31;5056977;28;20040;-67
2022/05/06 03:12:44;;;;;;;7.03;2.70;;;;;;;9.01;42.24;101959.59;5053847;28;20049;-67
2022/05/06 03:15:14;;;;;;;6.40;2.43;;;;;;;9.12;42.35;101966.69;5051389;28;20033;-66
2022/05/06 03:17:40;;;;;;;4.57;2.43;;;;;;;9.11;42.31;101962.34;5051958;28;20036;-65
2022/05/06 03:20:08;;;;;;;5.47;2.93;;;;;;;9.21;41.40;101977.41;5051706;28;20033;-65
2022/05/06 03:22:39;;;;;;;9.82;3.70;;;;;;;9.26;42.10;101977.06;5051350;28;20492;-65
2022/05/06 03:25:05;;;;;;;10.87;4.30;;;;;;;9.28;41.35;101975.13;5051580;28;20480;-66
2022/05/06 03:30:15;;;;;;;8.23;3.33;;;;;;;9.28;41.27;101962.66;5051644;28;20067;-66
2022/05/06 03:32:41;;;;;;;6.93;3.10;;;;;;;9.28;41.29;101959.16;5048503;28;20154;-68
2022/05/06 03:35:10;;;;;;;10.20;3.73;;;;;;;9.38;41.63;101969.88;5050939;28;20041;-67
2022/05/06 03:37:39;;;;;;;9.45;3.45;;;;;;;9.26;41.33;101953.13;5050904;28;20575;-68
2022/05/06 03:40:11;;;;;;;5.80;2.88;;;;;;;9.28;41.42;101956.50;5049937;28;20041;-66
2022/05/06 03:42:37;;;;;;;9.33;3.73;;;;;;;9.33;41.60;101964.94;5051308;28;20388;-67
2022/05/06 03:45:06;;;;;;;7.37;3.03;;;;;;;9.37;41.77;101977.00;5051411;28;20037;-68
2022/05/06 03:47:32;;;;;;;8.40;3.37;;;;;;;9.36;41.57;101969.16;5050091;28;20496;-67
2022/05/06 03:52:41;;;;;;;8.17;3.00;;;;;;;9.38;42.53;101989.34;5053839;28;20064;-67
2022/05/06 03:55:07;;;;;;;14.47;2.93;;;;;;;9.29;42.09;101979.47;5053756;28;20527;-66
2022/05/06 03:57:33;;;;;;;13.40;3.20;;;;;;;9.27;42.22;101984.91;5053844;28;20412;-71
2022/05/06 03:59:58;;;;;;;8.70;3.07;;;;;;;9.21;42.10;101981.88;5053821;28;20036;-67
2022/05/06 04:02:26;;;;;;;14.27;3.07;;;;;;;9.27;42.46;101981.41;5053901;28;20032;-67
2022/05/06 04:04:52;;;;;;;9.50;3.53;;;;;;;9.30;41.98;101979.34;5037313;28;20033;-68
2022/05/06 04:07:17;;;;;;;7.33;2.83;;;;;;;9.28;42.05;101988.41;5054739;28;20484;-67
2022/05/06 04:09:45;;;;;;;7.10;3.10;;;;;;;9.13;42.02;101965.72;5054928;28;20149;-70
2022/05/06 04:12:11;;;;;;;7.95;2.63;;;;;;;9.20;43.26;101974.88;5054804;28;20064;-68
2022/05/06 04:14:37;;;;;;;9.53;3.03;;;;;;;9.21;42.15;101972.09;5054879;28;20114;-70
2022/05/06 04:17:03;;;;;;;5.23;2.70;;;;;;;9.30;42.20;101954.56;5053513;28;20036;-69
2022/05/06 04:19:29;;;;;;;7.23;2.90;;;;;;;9.43;41.40;101947.25;5053569;28;20029;-67
2022/05/06 04:24:39;;;;;;;7.43;3.10;;;;;;;10.12;41.19;101968.97;5054390;28;20033;-71
2022/05/06 04:27:06;;;;;;;9.23;2.47;;;;;;;10.28;40.82;101962.34;5054267;28;20465;-66
2022/05/06 04:29:35;;;;;;;8.37;3.60;;;;;;;10.47;40.09;101968.63;5053926;28;20484;-66
2022/05/06 04:32:00;;;;;;;6.28;3.25;;;;;;;10.39;40.04;101970.25;5054484;28;20040;-66
2022/05/06 04:34:26;;;;;;;8.77;3.10;;;;;;;10.24;40.33;101951.97;5054179;28;20052;-68
2022/05/06 04:36:51;;;;;;;6.60;3.13;;;;;;;10.35;40.62;101974.16;5054936;28;20041;-66
2022/05/06 04:39:17;;;;;;;9.53;3.07;;;;;;;10.42;40.96;101967.34;5056109;28;20033;-68
2022/05/06 04:41:45;;;;;;;11.77;3.17;;;;;;;10.06;40.34;101894.09;5056801;28;20420;-65
2022/05/06 04:44:26;;;;;;;10.20;3.27;;;;;;;10.50;40.46;101963.03;5053892;28;20119;-68
2022/05/06 04:46:52;;;;;;;11.40;3.50;;;;;;;10.74;40.16;101965.38;5054283;28;20036;-66
2022/05/06 04:49:19;;;;;;;17.97;4.33;;;;;;;12.10;37.51;101967.25;5054109;28;20029;-67
2022/05/06 04:51:45;;;;;;;8.20;4.60;;;;;;;13.73;34.53;101963.91;5054201;28;20502;-69
2022/05/06 04:54:11;;;;;;;12.43;3.30;;;;;;;13.82;34.15;101938.88;5036647;28;20032;-68
2022/05/06 04:56:37;;;;;;;8.40;4.23;;;;;;;13.58;34.91;101960.09;5054360;28;20029;-67
2022/05/06 04:59:05;;;;;;;15.67;4.00;;;;;;;12.89;35.44;101939.25;5053821;28;20047;-68
2022/05/06 05:01:30;;;;;;;15.30;3.50;;;;;;;12.36;35.75;101916.72;5053868;28;20033;-67
2022/05/06 05:03:59;;;;;;;7.77;3.90;;;;;;;12.29;36.52;101960.19;5053962;28;20134;-65
2022/05/06 05:06:25;;;;;;;6.05;3.10;;;;;;;12.29;36.82;101960.19;5054230;28;20037;-67
2022/05/06 05:08:50;;;;;;;7.47;3.07;;;;;;;12.32;36.92;101955.38;5054327;28;20033;-65
2022/05/06 05:11:16;;;;;;;7.40;4.43;;;;;;;12.45;36.70;101949.75;5054237;28;20037;-66
2022/05/06 05:13:42;;;;;;;12.03;3.67;;;;;;;12.57;36.73;101953.91;5054454;28;20069;-66
2022/05/06 05:16:08;;;;;;;10.20;4.33;;;;;;;12.68;36.57;101956.38;5054149;28;20041;-66
2022/05/06 05:18:34;;;;;;;11.20;3.33;;;;;;;12.66;36.80;101936.97;5053962;28;20037;-66
2022/05/06 05:21:00;;;;;;;8.00;4.03;;;;;;;12.69;36.76;101946.53;5053851;28;20037;-66
2022/05/06 05:23:26;;;;;;;9.77;3.60;;;;;;;12.70;36.87;101932.16;5053540;28;20369;-67
2022/05/06 05:25:51;;;;;;;13.27;4.27;;;;;;;12.65;36.89;101919.25;5053344;28;20090;-66
2022/05/06 05:28:17;;;;;;;12.43;3.70;;;;;;;12.59;36.81;101940.41;5053430;28;20087;-66
2022/05/06 05:30:42;;;;;;;16.67;5.03;;;;;;;12.43;37.23;101956.19;5053264;28;20040;-66
2022/05/06 05:33:09;;;;;;;14.90;5.37;;;;;;;12.21;37.36;101954.72;5052914;28;20144;-66
2022/05/06 05:35:35;;;;;;;11.03;4.17;;;;;;;12.07;38.38;101961.34;5054052;28;20131;-67
2022/05/06 05:38:01;;;;;;;8.43;4.10;;;;;;;11.89;38.27;101961.25;5053270;28;20037;-66
2022/05/06 05:40:26;;;;;;;7.63;4.37;;;;;;;11.79;38.70;101947.03;5053161;28;20044;-67
2022/05/06 05:42:52;;;;;;;23.60;4.47;;;;;;;11.66;38.77;101941.97;5053428;28;20449;-66
2022/05/06 05:48:26;;;;;;;15.03;4.40;;;;;;;11.45;39.74;101944.78;5052258;28;20115;-66
2022/05/06 05:50:52;;;;;;;12.37;4.33;;;;;;;11.36;39.76;101955.44;5052473;28;20048;-68
2022/05/06 05:53:18;;;;;;;6.50;4.23;;;;;;;11.29;39.78;101948.97;5052927;28;20443;-67
2022/05/06 05:55:43;;;;;;;12.23;4.63;;;;;;;11.48;39.47;101960.50;5051781;28;20060;-66
2022/05/06 05:58:09;;;;;;;28.43;5.67;;;;;;;11.68;39.40;101963.19;5051626;28;20044;-73
2022/05/06 06:00:34;;;;;;;6.60;3.80;;;;;;;11.84;38.85;101954.63;5051268;28;20091;-65
2022/05/06 06:03:00;;;;;;;19.23;5.83;;;;;;;11.97;38.73;101929.31;5052578;28;20037;-67
2022/05/06 06:05:25;;;;;;;11.83;3.30;;;;;;;12.17;38.72;101945.31;5052813;28;20404;-65
2022/05/06 06:07:51;;;;;;;11.77;4.37;;;;;;;12.28;38.43;101947.81;5052343;28;20047;-67
2022/05/06 06:10:16;;;;;;;11.43;3.63;;;;;;;12.29;38.27;101944.16;5051991;28;20485;-66
2022/05/06 06:12:42;;;;;;;14.60;4.27;;;;;;;12.54;38.39;101943.50;5052140;28;20037;-67
2022/05/06 06:15:07;;;;;;;11.00;3.70;;;;;;;12.83;37.67;101951.41;5052502;28;20039;-68
2022/05/06 06:17:33;;;;;;;9.67;3.70;;;;;;;13.06;36.84;101938.47;5052700;28;20492;-64
2022/05/06 06:19:59;;;;;;;15.57;4.40;;;;;;;13.42;36.49;101943.88;5052281;28;20029;-64
2022/05/06 06:22:25;;;;;;;14.73;5.20;;;;;;;13.69;36.12;101957.19;5052347;28;20201;-68
2022/05/06 06:24:50;;;;;;;22.27;6.37;;;;;;;13.85;35.90;101951.13;5051874;28;20033;-67
2022/05/06 06:27:16;;;;;;;21.10;7.47;;;;;;;13.92;36.11;101954.88;5052866;28;20115;-66
2022/05/06 06:29:41;;;;;;;14.47;6.87;;;;;;;13.93;35.64;101960.09;5051601;28;20246;-70
2022/05/06 06:32:07;;;;;;;17.27;4.57;;;;;;;13.88;35.33;101962.41;5053192;28;20113;-69
2022/05/06 06:34:34;;;;;;;13.23;4.83;;;;;;;13.81;35.64;101952.44;5053738;28;20551;-69
2022/05/06 06:36:59;;;;;;;17.37;5.67;;;;;;;13.74;36.23;101952.22;5055812;28;20128;-69
2022/05/06 06:39:25;;;;;;;29.43;5.37;;;;;;;13.45;36.29;101928.38;5054835;28;20079;-70
2022/05/06 06:41:50;;;;;;;15.30;4.77;;;;;;;13.43;36.55;101938.38;5061426;28;20641;-65
2022/05/06 06:44:15;;;;;;;12.87;5.37;;;;;;;13.43;36.13;101943.75;5059588;28;20040;-67
2022/05/06 06:46:41;;;;;;;15.70;5.33;;;;;;;13.59;36.27;101953.78;5067130;28;20033;-70
2022/05/06 06:49:08;;;;;;;15.60;4.70;;;;;;;13.45;36.02;101923.00;5064731;28;20040;-67
2022/05/06 06:51:33;;;;;;;13.17;4.73;;;;;;;13.36;35.20;101931.13;5053012;28;20070;-69
2022/05/06 06:53:59;;;;;;;16.10;5.17;;;;;;;13.36;36.02;101923.94;5052879;28;20517;-67
2022/05/06 06:56:24;;;;;;;15.90;5.67;;;;;;;13.44;36.99;101945.41;5052270;28;20508;-68
2022/05/06 06:58:50;;;;;;;13.60;4.60;;;;;;;13.48;36.93;101951.31;5050791;28;20078;-69
2022/05/06 07:01:15;;;;;;;14.40;5.13;;;;;;;13.21;37.45;101917.41;5052289;28;20489;-71
2022/05/06 07:03:41;;;;;;;11.27;5.03;;;;;;;13.17;36.76;101914.22;5052686;28;20048;-70
2022/05/06 07:14:19;;;;;;;5.40;3.27;;;;;;;13.19;35.71;101925.59;5052245;28;20077;-71
2022/05/06 07:16:44;;;;;;;7.93;3.00;;;;;;;12.59;36.39;101834.34;5056544;28;20032;-65
2022/05/06 07:19:10;;;;;;;16.90;4.63;;;;;;;13.40;36.57;101945.88;5071129;28;20036;-68
2022/05/06 07:21:36;;;;;;;7.77;3.20;;;;;;;13.55;36.36;101949.69;5061194;28;20090;-68
2022/05/06 07:24:02;;;;;;;9.93;3.50;;;;;;;13.59;36.77;101935.03;5055724;28;20116;-68
2022/05/06 07:26:27;;;;;;;8.90;3.80;;;;;;;13.64;35.91;101955.00;5060335;28;20075;-67
2022/05/06 07:28:53;;;;;;;9.17;3.50;;;;;;;13.56;36.79;101951.38;5057429;28;20097;-66
2022/05/06 07:31:18;;;;;;;8.93;3.33;;;;;;;13.30;37.32;101924.56;5056201;28;20418;-68
2022/05/06 07:33:44;;;;;;;7.27;3.90;;;;;;;13.46;36.95;101946.09;5055407;28;20148;-64
2022/05/06 07:36:10;;;;;;;6.93;3.33;;;;;;;13.56;37.23;101951.38;5054518;28;20499;-70
2022/05/06 07:38:35;;;;;;;7.53;3.50;;;;;;;13.65;37.56;101950.47;5056296;28;20037;-69
2022/05/06 07:41:03;;;;;;;6.13;3.20;;;;;;;13.65;38.28;101934.41;5058909;28;20190;-72
2022/05/06 07:43:29;;;;;;;8.07;3.33;;;;;;;13.81;38.03;101929.19;5057545;28;20087;-68
2022/05/06 07:45:55;;;;;;;8.77;2.83;;;;;;;13.99;37.73;101920.28;5055603;28;20435;-65
2022/05/06 07:48:20;;;;;;;11.87;3.00;;;;;;;13.71;37.06;101880.25;5055904;28;20040;-68
2022/05/06 07:50:46;;;;;;;10.27;3.23;;;;;;;14.14;37.47;101929.41;5055674;28;20051;-68
2022/05/06 07:53:13;;;;;;;8.30;3.30;;;;;;;14.31;37.43;101928.53;5055036;28;20492;-69
2022/05/06 07:55:39;;;;;;;5.63;3.07;;;;;;;14.33;36.98;101926.53;5055164;28;20043;-64
2022/05/06 07:58:05;;;;;;;7.90;3.40;;;;;;;14.37;37.07;101925.19;5054899;28;20641;-67
2022/05/06 08:00:31;;;;;;;6.70;3.20;;;;;;;14.66;36.72;101929.41;5055422;28;20033;-71
2022/05/06 08:05:41;;;;;;;6.93;3.50;;;;;;;15.07;35.79;101891.00;5055964;28;20037;-70
2022/05/06 08:08:07;;;;;;;6.63;3.53;;;;;;;15.39;35.23;101895.56;5055852;28;20040;-75
2022/05/06 08:10:32;;;;;;;9.90;3.90;;;;;;;15.52;35.25;101889.69;5055868;28;20044;-78
2022/05/06 08:12:58;;;;;;;18.77;4.30;;;;;;;15.71;35.45;101902.00;5054693;28;20041;-73
2022/05/06 08:15:23;;;;;;;9.43;3.20;;;;;;;15.57;35.62;101906.13;5054718;28;20037;-72
2022/05/06 08:17:49;;;;;;;6.10;3.63;;;;;;;15.27;36.80;101898.72;5055114;28;20460;-73
2022/05/06 08:20:15;;;;;;;7.77;3.97;;;;;;;14.92;36.66;101878.38;5054597;28;20033;-66
2022/05/06 08:22:41;;;;;;;9.70;3.90;;;;;;;14.95;37.50;101911.06;5054845;28;20446;-76
2022/05/06 08:25:08;;;;;;;7.67;3.20;;;;;;;14.88;37.42;101923.47;5055236;28;20111;-70
2022/05/06 08:27:38;;;;;;;13.67;3.83;;;;;;;14.80;37.25;101910.03;5054627;28;20393;-72
2022/05/06 08:30:05;;;;;;;12.23;4.37;;;;;;;14.82;37.72;101899.97;5054595;28;20519;-71
2022/05/06 08:32:37;;;;;;;10.40;3.73;;;;;;;15.01;37.11;101913.09;5054547;28;20076;-69
2022/05/06 08:35:03;;;;;;;14.67;4.90;;;;;;;14.97;36.77;101902.84;5055254;28;20139;-73
2022/05/06 08:37:29;;;;;;;13.63;4.63;;;;;;;14.99;37.21;101911.59;5053981;28;20037;-70
2022/05/06 08:39:55;;;;;;;9.90;4.40;;;;;;;14.88;37.23;101886.75;5054672;28;20052;-71
2022/05/06 08:42:22;;;;;;;9.27;4.50;;;;;;;14.83;37.64;101889.09;5053868;28;20082;-72
2022/05/06 08:53:05;;;;;;;9.10;3.40;;;;;;;15.08;38.20;101887.31;5053883;28;20048;-73
2022/05/06 08:55:32;;;;;;;14.20;5.03;;;;;;;15.35;38.49;101898.75;5054127;28;20037;-73
2022/05/06 08:57:58;;;;;;;9.13;3.47;;;;;;;15.02;38.35;101850.38;5052022;28;20091;-69
2022/05/06 09:00:25;;;;;;;8.27;3.80;;;;;;;15.24;38.21;101880.28;5053794;28;20091;-69
2022/05/06 09:02:53;;;;;;;9.30;3.43;;;;;;;15.03;39.70;101891.47;5052700;28;20044;-69
2022/05/06 09:05:20;;;;;;;5.13;3.78;;;;;;;14.75;39.56;101866.78;5054068;28;20025;-69
2022/05/06 09:08:02;;;;;;;15.07;4.10;;;;;;;14.76;39.70;101865.78;5053085;28;20043;-66
2022/05/06 09:10:29;;;;;;;6.23;2.93;;;;;;;14.73;40.61;101872.28;5052635;28;20033;-65
2022/05/06 09:13:02;;;;;;;3.70;2.90;;;;;;;14.78;40.49;101896.78;5053738;28;20041;-66
2022/05/06 09:18:22;;;;;;;21.17;4.73;;;;;;;14.79;41.04;101858.25;5053941;28;20051;-64
2022/05/06 09:20:49;;;;;;;4.97;2.93;;;;;;;14.95;40.78;101883.41;5053546;28;20033;-69
2022/05/06 09:23:20;;;;;;;8.63;3.40;;;;;;;15.03;40.96;101889.63;5053404;28;20033;-67
2022/05/06 09:25:49;;;;;;;6.77;3.87;;;;;;;15.01;40.55;101883.59;5053615;28;20263;-71
2022/05/06 09:28:33;;;;;;;5.30;3.27;;;;;;;15.06;41.23;101873.22;5053642;28;20040;-74
2022/05/06 09:31:04;;;;;;;6.80;3.10;;;;;;;14.87;41.48;101862.78;5053573;28;20377;-71
2022/05/06 09:33:37;;;;;;;9.83;4.43;;;;;;;14.95;41.02;101870.84;5053040;28;20428;-67
2022/05/06 09:36:29;;;;;;;9.68;3.42;;;;;;;15.18;40.70;101869.22;5055262;28;20056;-77
2022/05/06 09:39:09;;;;;;;7.33;3.63;;;;;;;15.40;40.11;101874.94;5052556;28;20048;-68
2022/05/06 09:41:37;;;;;;;8.90;3.33;;;;;;;15.16;40.29;101876.59;5052036;28;20122;-69
2022/05/06 09:44:05;;;;;;;11.57;3.23;;;;;;;14.88;40.87;101857.25;5052921;28;20040;-66
2022/05/06 09:46:31;;;;;;;8.90;3.03;;;;;;;14.81;41.79;101850.88;5052333;28;20416;-66
2022/05/06 09:48:59;;;;;;;5.23;3.00;;;;;;;14.86;40.64;101863.78;5051739;28;20049;-67
2022/05/06 09:51:29;;;;;;;14.35;4.25;;;;;;;14.97;41.02;101873.34;5052992;28;20399;-67
2022/05/06 09:53:57;;;;;;;11.87;3.53;;;;;;;14.93;40.96;101866.63;5051528;28;20566;-66
2022/05/06 09:56:24;;;;;;;9.80;3.67;;;;;;;15.07;41.02;101869.53;5051521;28;20177;-68
2022/05/06 09:58:53;;;;;;;8.97;3.63;;;;;;;15.33;40.27;101855.16;5052489;28;20044;-67
2022/05/06 10:01:19;;;;;;;7.53;3.50;;;;;;;15.46;39.20;101837.53;5052680;28;20039;-70
2022/05/06 10:03:45;;;;;;;3.93;2.97;;;;;;;15.61;39.80;101851.16;5052696;28;20048;-69
2022/05/06 10:06:12;;;;;;;5.97;3.50;;;;;;;15.70;39.36;101855.50;5051587;28;20032;-69
2022/05/06 10:08:44;;;;;;;27.33;5.17;;;;;;;15.76;39.42;101864.72;5052620;28;20047;-69
2022/05/06 10:11:14;;;;;;;5.50;3.17;;;;;;;15.64;38.89;101840.06;5052535;28;20035;-65
2022/05/06 10:13:45;;;;;;;11.83;3.60;;;;;;;15.91;38.88;101851.44;5052487;28;20036;-60
2022/05/06 10:16:11;;;;;;;6.77;3.40;;;;;;;15.99;38.72;101856.78;5051156;28;20033;-66
2022/05/06 10:18:41;;;;;;;7.23;3.53;;;;;;;15.91;38.99;101846.06;5052328;28;20032;-61
2022/05/06 10:21:48;;;;;;;8.10;3.97;;;;;;;15.99;38.52;101864.84;5051395;28;20071;-68
2022/05/06 10:24:15;;;;;;;14.47;3.63;;;;;;;15.83;38.80;101857.66;5052652;28;20511;-70
2022/05/06 10:26:43;;;;;;;6.10;3.17;;;;;;;15.80;38.64;101866.06;5051017;28;20484;-67
2022/05/06 10:35:08;;;;;;;10.10;3.30;;;;;;;15.33;39.90;101825.63;5052200;28;20102;-73
2022/05/06 10:37:43;;;;;;;12.80;3.30;;;;;;;15.56;39.80;101860.66;5051945;28;20057;-70
2022/05/06 10:40:34;;;;;;;5.32;2.90;;;;;;;15.57;39.49;101841.69;5052489;28;20079;-77
2022/05/06 10:42:59;;;;;;;12.30;3.33;;;;;;;15.56;39.46;101815.84;5052034;28;20472;-70
2022/05/06 10:45:26;;;;;;;7.17;2.87;;;;;;;15.95;39.40;101864.34;5052244;28;20403;-68
2022/05/06 10:47:53;;;;;;;13.07;3.13;;;;;;;15.84;39.19;101840.53;5052028;28;20039;-69
2022/05/06 10:50:21;;;;;;;19.97;4.47;;;;;;;15.89;39.50;101889.19;5052184;28;20076;-71
2022/05/06 10:52:47;;;;;;;11.88;4.45;;;;;;;15.79;40.26;101883.19;5050954;28;20045;-75
2022/05/06 10:55:15;;;;;;;7.07;3.07;;;;;;;15.78;39.72;101881.50;5051134;28;20051;-70
2022/05/06 10:57:50;;;;;;;15.03;3.97;;;;;;;15.70;39.72;101882.34;5052064;28;20496;-71
2022/05/06 11:00:17;;;;;;;11.20;3.80;;;;;;;15.79;40.19;101881.31;5051738;28;20167;-70
2022/05/06 11:02:42;;;;;;;8.70;3.40;;;;;;;15.92;39.45;101885.34;5051876;28;20032;-68
2022/05/06 11:05:10;;;;;;;19.30;4.30;;;;;;;15.98;39.11;101880.13;5051716;28;20036;-68
2022/05/06 11:07:41;;;;;;;12.05;3.35;;;;;;;15.99;38.72;101889.03;5051371;28;20354;-66
2022/05/06 11:10:27;;;;;;;10.27;3.97;;;;;;;15.98;39.20;101884.66;5051683;28;20068;-74
2022/05/06 11:12:56;;;;;;;8.00;3.10;;;;;;;15.77;39.00;101872.59;5052349;28;20040;-71
2022/05/06 11:15:22;;;;;;;7.60;3.33;;;;;;;16.01;38.90;101884.31;5052119;28;20079;-69
2022/05/06 11:17:49;;;;;;;10.30;3.70;;;;;;;16.12;38.56;101883.94;5058490;28;20277;-69
2022/05/06 11:20:22;;;;;;;14.90;3.40;;;;;;;16.15;38.37;101875.53;5057163;28;20067;-69
2022/05/06 11:22:49;;;;;;;11.00;3.00;;;;;;;16.04;38.23;101862.50;5059793;28;20055;-67
2022/05/06 11:25:15;;;;;;;7.27;2.60;;;;;;;16.01;38.11;101868.19;5058133;28;20067;-68
2022/05/06 11:27:40;;;;;;;14.47;3.83;;;;;;;15.82;39.00;101865.88;5054040;28;20087;-65
2022/05/06 11:30:07;;;;;;;12.93;3.20;;;;;;;15.71;38.92;101869.75;5054428;28;20040;-69
2022/05/06 11:32:35;;;;;;;15.00;3.93;;;;;;;15.62;39.19;101862.72;5057065;28;20040;-72
2022/05/06 11:35:11;;;;;;;11.77;3.40;;;;;;;15.79;39.75;101875.97;5066643;28;20048;-67
2022/05/06 11:37:40;;;;;;;6.43;3.20;;;;;;;15.69;38.99;101859.19;5053662;28;20060;-65
2022/05/06 11:40:32;;;;;;;7.77;3.20;;;;;;;15.62;38.98;101874.31;5053870;28;20040;-67
2022/05/06 11:42:59;;;;;;;16.60;4.07;;;;;;;15.43;39.67;101858.50;5055283;28;20404;-67
2022/05/06 11:48:11;;;;;;;9.93;3.20;;;;;;;15.55;38.99;101867.88;5050831;28;20036;-67
2022/05/06 11:50:38;;;;;;;9.67;3.03;;;;;;;15.41;39.11;101857.81;5033827;28;20041;-67
2022/05/06 11:53:09;;;;;;;10.63;3.57;;;;;;;15.48;39.24;101867.72;5051434;28;20170;-70
2022/05/06 11:55:36;;;;;;;8.40;2.73;;;;;;;15.35;38.90;101845.91;5051679;28;20049;-66
2022/05/06 11:58:04;;;;;;;8.57;3.00;;;;;;;15.47;39.37;101865.19;5051615;28;20075;-64
2022/05/06 12:00:30;;;;;;;14.27;3.20;;;;;;;15.36;39.16;101855.66;5050893;28;20076;-62
2022/05/06 12:03:01;;;;;;;7.00;2.83;;;;;;;15.40;38.98;101869.56;5051253;28;20087;-68
2022/05/06 12:05:26;;;;;;;3.87;2.90;;;;;;;15.27;38.96;101858.47;5051315;28;20109;-71
2022/05/06 12:07:52;;;;;;;5.43;2.70;;;;;;;15.32;38.78;101861.50;5051564;28;20483;-70
2022/05/06 12:10:25;;;;;;;7.57;2.43;;;;;;;15.42;38.87;101862.19;5052574;28;20200;-73
2022/05/06 12:13:04;;;;;;;6.37;2.90;;;;;;;15.25;39.12;101833.66;5054887;28;20040;-65
2022/05/06 12:15:47;;;;;;;5.33;2.60;;;;;;;15.50;39.47;101863.00;5055104;28;20112;-72